Time;durP1;ratioP1;P1;durP2;ratioP2;P2;SDS_P1;SDS_P2;PMS_P1;PMS_P2;Temp;Humidity;BMP_temperature;BMP_pressure;BME280_temperature;BME280_humidity;BME280_pressure;Samples;Min_cycle;Max_cycle;Signal;HPM_P1;HPM_P2
2022/06/27 00:01:24;;;;;;;10.63;7.75;;;17.70;99.90;;;;;;5005130;28;20172;-65
2022/06/27 00:03:50;;;;;;;10.15;8.10;;;17.70;99.90;;;;;;5007125;28;20558;-66
2022/06/27 00:06:19;;;;;;;14.65;7.65;;;17.70;99.90;;;;;;5007789;28;20513;-65
2022/06/27 00:08:48;;;;;;;11.38;8.35;;;17.70;99.90;;;;;;5010190;28;20434;-65
2022/06/27 00:11:16;;;;;;;14.30;8.45;;;17.70;99.90;;;;;;5009783;28;20049;-66
2022/06/27 00:13:41;;;;;;;12.00;7.87;;;17.70;99.90;;;;;;4990820;28;20057;-65
2022/06/27 00:16:07;;;;;;;9.75;7.82;;;17.70;99.90;;;;;;5010434;28;20775;-66
2022/06/27 00:18:33;;;;;;;13.68;8.52;;;17.70;99.90;;;;;;5002682;28;20554;-66
2022/06/27 00:20:59;;;;;;;13.60;8.82;;;17.70;99.90;;;;;;5012518;28;20045;-65
2022/06/27 00:23:24;;;;;;;10.35;7.90;;;17.70;99.90;;;;;;5013619;28;20092;-65
2022/06/27 00:25:50;;;;;;;16.45;8.95;;;17.60;99.90;;;;;;5013308;28;20354;-65
2022/06/27 00:28:16;;;;;;;14.00;9.07;;;17.60;99.90;;;;;;5010561;28;20038;-65
2022/06/27 00:30:42;;;;;;;14.38;9.55;;;17.60;99.90;;;;;;5009762;28;20038;-67
2022/06/27 00:33:08;;;;;;;12.38;8.50;;;17.60;99.90;;;;;;5008541;28;20050;-65
2022/06/27 00:35:33;;;;;;;11.50;8.52;;;17.60;99.90;;;;;;5014039;28;20418;-65
2022/06/27 00:37:59;;;;;;;11.50;9.20;;;17.60;99.90;;;;;;5014930;28;20046;-65
2022/06/27 00:40:25;;;;;;;11.07;8.75;;;17.50;99.90;;;;;;5011097;28;20046;-65
2022/06/27 00:42:50;;;;;;;9.95;8.35;;;17.50;99.90;;;;;;5013856;28;20496;-65
2022/06/27 00:45:16;;;;;;;12.57;9.57;;;17.50;99.90;;;;;;5011890;28;20094;-66
2022/06/27 00:47:42;;;;;;;11.30;8.88;;;17.50;99.90;;;;;;5027968;28;20447;-66
2022/06/27 00:50:09;;;;;;;13.50;8.60;;;17.50;99.90;;;;;;5008012;28;20081;-65
2022/06/27 00:52:35;;;;;;;13.27;9.05;;;17.50;99.90;;;;;;5013037;28;20046;-66
2022/06/27 00:55:01;;;;;;;13.25;9.10;;;17.40;99.90;;;;;;5029238;28;20053;-65
2022/06/27 00:57:28;;;;;;;10.80;8.88;;;17.40;99.90;;;;;;5014806;28;20041;-65
2022/06/27 00:59:54;;;;;;;13.73;10.20;;;17.50;99.90;;;;;;5007525;28;20227;-66
2022/06/27 01:02:19;;;;;;;16.90;9.77;;;17.40;99.90;;;;;;5011725;28;20404;-66
2022/06/27 01:04:45;;;;;;;10.73;8.40;;;17.40;99.90;;;;;;5009949;28;20077;-66
2022/06/27 01:07:11;;;;;;;11.50;8.43;;;17.50;99.90;;;;;;5006360;28;20057;-66
2022/06/27 01:09:38;;;;;;;12.27;8.40;;;17.50;99.90;;;;;;5012618;28;20180;-66
2022/06/27 01:12:04;;;;;;;12.05;9.07;;;17.50;99.90;;;;;;5011025;28;20049;-65
2022/06/27 01:14:32;;;;;;;13.40;8.52;;;17.40;99.90;;;;;;5009683;28;20050;-64
2022/06/27 01:16:58;;;;;;;10.75;8.85;;;17.40;99.90;;;;;;5008887;28;20050;-65
2022/06/27 01:19:24;;;;;;;10.95;9.50;;;17.40;99.90;;;;;;5010434;28;20128;-65
2022/06/27 01:21:55;;;;;;;14.48;9.88;;;17.40;99.90;;;;;;5009138;28;20129;-66
2022/06/27 01:24:23;;;;;;;15.73;10.23;;;17.40;99.90;;;;;;5011317;28;20045;-65
2022/06/27 01:26:49;;;;;;;14.63;9.85;;;17.40;99.90;;;;;;5008580;28;20042;-64
2022/06/27 01:29:16;;;;;;;15.43;10.38;;;17.30;99.90;;;;;;5013332;28;20046;-65
2022/06/27 01:31:42;;;;;;;13.60;9.87;;;17.30;99.90;;;;;;5009674;28;20125;-65
2022/06/27 01:34:09;;;;;;;15.73;10.45;;;17.30;99.90;;;;;;5011339;28;20399;-65
2022/06/27 01:36:44;;;;;;;14.93;9.75;;;17.30;99.90;;;;;;5013832;28;20583;-64
2022/06/27 01:39:13;;;;;;;12.07;9.05;;;17.30;99.90;;;;;;5009830;28;20045;-65
2022/06/27 01:41:52;;;;;;;12.30;9.95;;;17.20;99.90;;;;;;5009077;28;20050;-65
2022/06/27 01:44:20;;;;;;;13.27;9.50;;;17.20;99.90;;;;;;4995678;28;20045;-65
2022/06/27 01:46:55;;;;;;;12.70;9.68;;;17.20;99.90;;;;;;5009398;28;20048;-65
2022/06/27 01:49:21;;;;;;;11.15;9.95;;;17.20;99.90;;;;;;5009285;28;20042;-65
2022/06/27 01:51:50;;;;;;;15.60;10.10;;;17.20;99.90;;;;;;5008738;28;20042;-65
2022/06/27 01:54:18;;;;;;;13.95;10.85;;;17.20;99.90;;;;;;5005397;28;20242;-64
2022/06/27 01:56:46;;;;;;;14.13;10.90;;;17.20;99.90;;;;;;5006548;28;20045;-64
2022/06/27 01:59:13;;;;;;;13.68;11.02;;;17.20;99.90;;;;;;5007276;28;20041;-64
2022/06/27 02:01:40;;;;;;;15.38;10.35;;;17.20;99.90;;;;;;5009586;28;21482;-64
2022/06/27 02:04:06;;;;;;;14.63;11.02;;;17.20;99.90;;;;;;5010010;28;21501;-64
2022/06/27 02:06:32;;;;;;;16.02;10.38;;;17.20;99.90;;;;;;5006958;28;20047;-64
2022/06/27 02:08:58;;;;;;;14.50;10.73;;;17.20;99.90;;;;;;5024636;28;20088;-64
2022/06/27 02:11:25;;;;;;;14.75;9.85;;;17.20;99.90;;;;;;5007906;28;20066;-65
2022/06/27 02:13:52;;;;;;;11.67;9.50;;;17.20;99.90;;;;;;5007895;28;20070;-64
2022/06/27 02:16:19;;;;;;;12.48;9.27;;;17.20;99.90;;;;;;5025602;28;20472;-64
2022/06/27 02:18:47;;;;;;;14.18;9.82;;;17.20;99.90;;;;;;5004920;28;20034;-64
2022/06/27 02:21:19;;;;;;;12.38;10.35;;;17.20;99.90;;;;;;5009456;28;20065;-65
2022/06/27 02:23:45;;;;;;;13.90;10.57;;;17.20;99.90;;;;;;5008321;28;20053;-65
2022/06/27 02:26:12;;;;;;;14.35;9.35;;;17.20;99.90;;;;;;5006617;28;20095;-65
2022/06/27 02:28:38;;;;;;;17.02;10.57;;;17.20;99.90;;;;;;5007502;28;20048;-65
2022/06/27 02:31:06;;;;;;;12.35;10.00;;;17.20;99.90;;;;;;5009013;28;20046;-65
2022/06/27 02:33:42;;;;;;;14.27;11.00;;;17.20;99.90;;;;;;5009022;28;20095;-65
2022/06/27 02:36:13;;;;;;;13.65;10.15;;;17.20;99.90;;;;;;5011757;28;20046;-65
2022/06/27 02:38:41;;;;;;;15.15;10.80;;;17.20;99.90;;;;;;5001388;28;20037;-65
2022/06/27 02:41:12;;;;;;;14.13;10.32;;;17.30;99.90;;;;;;5012318;28;20095;-66
2022/06/27 02:43:39;;;;;;;12.27;9.68;;;17.20;99.90;;;;;;5008845;28;20049;-66
2022/06/27 02:46:05;;;;;;;13.47;10.13;;;17.20;99.90;;;;;;5009521;28;20041;-65
2022/06/27 02:48:32;;;;;;;13.20;11.13;;;17.20;99.90;;;;;;5010603;28;20380;-65
2022/06/27 02:51:04;;;;;;;15.07;12.40;;;17.20;99.90;;;;;;4999278;28;20058;-65
2022/06/27 02:53:42;;;;;;;16.15;10.95;;;17.20;99.90;;;;;;5025639;28;20050;-65
2022/06/27 02:56:10;;;;;;;15.48;11.63;;;17.20;99.90;;;;;;5008539;28;20061;-65
2022/06/27 02:58:38;;;;;;;;;;;17.20;99.90;;;;;;5008329;28;20407;-64
2022/06/27 03:01:05;;;;;;;14.63;11.68;;;17.20;99.90;;;;;;5013542;28;19996;-65
2022/06/27 03:03:34;;;;;;;17.52;12.30;;;17.20;99.90;;;;;;4990952;28;20064;-65
2022/06/27 03:06:06;;;;;;;16.60;12.77;;;17.20;99.90;;;;;;5002511;28;20384;-65
2022/06/27 03:08:41;;;;;;;16.70;12.50;;;17.10;99.90;;;;;;5010905;28;20042;-65
2022/06/27 03:11:09;;;;;;;16.13;12.80;;;17.10;99.90;;;;;;5006950;28;20125;-65
2022/06/27 03:13:34;;;;;;;14.82;13.15;;;17.10;99.90;;;;;;5009895;28;20125;-65
2022/06/27 03:16:01;;;;;;;17.35;13.77;;;17.10;99.90;;;;;;4989608;28;20133;-65
2022/06/27 03:18:26;;;;;;;20.30;13.07;;;17.10;99.90;;;;;;5010227;28;20092;-65
2022/06/27 03:20:52;;;;;;;17.20;13.93;;;17.00;99.90;;;;;;5006571;28;20037;-65
2022/06/27 03:23:19;;;;;;;19.52;14.40;;;17.00;99.90;;;;;;5009878;28;20444;-65
2022/06/27 03:25:44;;;;;;;15.45;13.73;;;16.90;99.90;;;;;;5006661;28;20401;-65
2022/06/27 03:28:11;;;;;;;24.25;15.43;;;17.00;99.90;;;;;;5022535;28;20076;-65
2022/06/27 03:30:37;;;;;;;18.60;15.02;;;16.90;99.90;;;;;;5007571;28;20046;-64
2022/06/27 03:33:03;;;;;;;20.77;15.48;;;16.90;99.90;;;;;;5010182;28;20045;-65
2022/06/27 03:35:28;;;;;;;18.52;15.13;;;16.90;99.90;;;;;;5004065;28;20427;-66
2022/06/27 03:37:54;;;;;;;21.02;17.30;;;16.90;99.90;;;;;;5006350;28;20064;-66
2022/06/27 03:40:20;;;;;;;22.58;16.65;;;16.90;99.90;;;;;;5009143;28;20042;-64
2022/06/27 03:42:45;;;;;;;23.95;16.92;;;16.90;99.90;;;;;;5009374;28;20247;-66
2022/06/27 03:45:12;;;;;;;20.23;16.85;;;16.90;99.90;;;;;;5005776;28;20119;-67
2022/06/27 03:47:48;;;;;;;21.95;17.60;;;16.90;99.90;;;;;;5008374;28;20377;-66
2022/06/27 03:50:14;;;;;;;23.40;18.17;;;16.90;99.90;;;;;;5002908;28;20141;-66
2022/06/27 03:52:41;;;;;;;26.98;18.55;;;16.80;99.90;;;;;;5005037;28;20037;-66
2022/06/27 03:55:07;;;;;;;22.25;17.35;;;16.80;99.90;;;;;;5006550;28;20536;-66
2022/06/27 03:57:38;;;;;;;18.60;15.32;;;16.80;99.90;;;;;;5006200;28;20042;-65
2022/06/27 04:00:08;;;;;;;20.30;15.57;;;16.80;99.90;;;;;;5005305;28;20619;-66
2022/06/27 04:02:34;;;;;;;19.92;15.77;;;16.90;99.90;;;;;;5007760;28;20045;-66
2022/06/27 04:05:00;;;;;;;21.67;15.93;;;16.90;99.90;;;;;;4969478;28;1097067;-66
2022/06/27 04:07:26;;;;;;;20.55;15.45;;;16.80;99.90;;;;;;5001421;28;20065;-66
2022/06/27 04:09:52;;;;;;;18.52;14.05;;;16.80;99.90;;;;;;5011194;28;20038;-66
2022/06/27 04:12:17;;;;;;;21.27;14.60;;;16.90;99.90;;;;;;5011872;28;20046;-66
2022/06/27 04:14:43;;;;;;;19.92;13.73;;;16.90;99.90;;;;;;5005889;28;20535;-65
2022/06/27 04:17:09;;;;;;;16.67;13.75;;;16.80;99.90;;;;;;5004229;28;21457;-66
2022/06/27 04:19:34;;;;;;;14.98;12.40;;;16.90;99.90;;;;;;5009770;28;20049;-66
2022/06/27 04:22:00;;;;;;;19.05;13.27;;;16.90;99.90;;;;;;5004684;28;20050;-66
2022/06/27 04:24:26;;;;;;;14.10;12.10;;;16.90;99.90;;;;;;5008192;28;20535;-66
2022/06/27 04:26:51;;;;;;;13.10;11.60;;;16.90;99.90;;;;;;5008553;28;20466;-66
2022/06/27 04:29:17;;;;;;;13.68;11.85;;;16.90;99.90;;;;;;5008508;28;20044;-66
2022/06/27 04:31:43;;;;;;;15.05;11.73;;;16.90;99.90;;;;;;5009702;28;20050;-65
2022/06/27 04:34:12;;;;;;;16.15;12.60;;;16.90;99.90;;;;;;5006511;28;20069;-67
2022/06/27 04:36:38;;;;;;;16.45;11.93;;;16.90;99.90;;;;;;5024481;28;20054;-66
2022/06/27 04:39:04;;;;;;;13.07;10.57;;;16.90;99.90;;;;;;5008995;28;20030;-65
2022/06/27 04:41:30;;;;;;;12.20;10.65;;;16.90;99.90;;;;;;5007268;28;20128;-65
2022/06/27 04:43:55;;;;;;;14.95;11.57;;;16.90;99.90;;;;;;5007652;28;20116;-66
2022/06/27 04:46:22;;;;;;;15.35;11.68;;;16.90;99.90;;;;;;5000476;28;20101;-65
2022/06/27 04:48:48;;;;;;;16.50;12.60;;;16.90;99.90;;;;;;5003296;28;20049;-66
2022/06/27 04:51:14;;;;;;;16.70;12.73;;;17.00;99.90;;;;;;5002849;28;20440;-66
2022/06/27 04:53:41;;;;;;;14.23;12.10;;;17.00;99.90;;;;;;5011352;28;20041;-65
2022/06/27 04:56:08;;;;;;;13.73;11.23;;;17.00;99.90;;;;;;5015450;28;20096;-66
2022/06/27 04:58:34;;;;;;;12.75;10.80;;;17.00;99.90;;;;;;5010017;28;20046;-67
2022/06/27 05:01:01;;;;;;;11.50;10.27;;;17.00;99.90;;;;;;5009882;28;20367;-66
2022/06/27 05:03:26;;;;;;;12.00;10.05;;;17.00;99.90;;;;;;5008557;28;20038;-67
2022/06/27 05:05:52;;;;;;;12.95;9.73;;;17.00;99.90;;;;;;5010691;28;21198;-67
2022/06/27 05:08:20;;;;;;;10.93;9.13;;;17.00;99.90;;;;;;5011581;28;20120;-67
2022/06/27 05:10:46;;;;;;;;;;;17.00;99.90;;;;;;5011846;28;20686;-67
2022/06/27 05:13:12;;;;;;;9.10;8.15;;;17.00;99.90;;;;;;5013752;28;20299;-67
2022/06/27 05:15:38;;;;;;;8.60;7.65;;;17.00;99.90;;;;;;5017310;28;20357;-67
2022/06/27 05:18:04;;;;;;;10.02;7.32;;;17.10;99.90;;;;;;5015051;28;20180;-67
2022/06/27 05:20:30;;;;;;;7.18;6.07;;;17.10;99.90;;;;;;5004853;28;20496;-67
2022/06/27 05:23:02;;;;;;;8.75;6.30;;;17.10;99.90;;;;;;5007480;28;20042;-66
2022/06/27 05:25:28;;;;;;;6.28;5.65;;;17.10;99.90;;;;;;5010875;28;20041;-66
2022/06/27 05:27:56;;;;;;;5.75;5.13;;;17.10;99.90;;;;;;5000813;28;20041;-66
2022/06/27 05:30:22;;;;;;;6.60;5.10;;;17.10;99.90;;;;;;5010341;28;20045;-66
2022/06/27 05:32:48;;;;;;;7.80;5.82;;;17.10;99.90;;;;;;5009604;28;20085;-66
2022/06/27 05:35:14;;;;;;;5.78;4.88;;;17.10;99.90;;;;;;5010606;28;20049;-65
2022/06/27 05:37:43;;;;;;;8.20;5.22;;;17.10;99.90;;;;;;5012951;28;20049;-66
2022/06/27 05:40:09;;;;;;;7.10;5.20;;;17.10;99.90;;;;;;5009362;28;20061;-66
2022/06/27 05:42:35;;;;;;;7.88;4.95;;;17.10;99.90;;;;;;5010168;28;20042;-67
2022/06/27 05:45:03;;;;;;;5.22;4.53;;;17.10;99.90;;;;;;5006074;28;20068;-66
2022/06/27 05:47:29;;;;;;;6.88;4.68;;;17.10;99.90;;;;;;5012066;28;20050;-66
2022/06/27 05:49:55;;;;;;;5.57;4.10;;;17.10;99.90;;;;;;5006451;28;20508;-66
2022/06/27 05:52:22;;;;;;;5.40;4.10;;;17.10;99.90;;;;;;5010766;28;20373;-66
2022/06/27 05:54:48;;;;;;;6.15;3.63;;;17.20;99.90;;;;;;5011837;28;20053;-66
2022/06/27 05:57:14;;;;;;;5.70;3.92;;;17.20;99.90;;;;;;5012761;28;20392;-66
2022/06/27 05:59:41;;;;;;;7.35;3.90;;;17.30;99.90;;;;;;5012385;28;20046;-66
2022/06/27 06:02:07;;;;;;;4.65;3.88;;;17.30;99.90;;;;;;5006255;28;20042;-65
2022/06/27 06:04:34;;;;;;;3.83;3.22;;;17.40;99.90;;;;;;5021879;28;20056;-66
2022/06/27 06:07:00;;;;;;;4.70;3.65;;;17.50;99.90;;;;;;5014140;28;20046;-66
2022/06/27 06:09:26;;;;;;;4.82;3.03;;;17.60;99.90;;;;;;5011690;28;20428;-66
2022/06/27 06:11:53;;;;;;;5.15;3.38;;;17.70;99.90;;;;;;5012427;28;20088;-67
2022/06/27 06:14:21;;;;;;;4.22;2.95;;;17.70;99.90;;;;;;5015146;28;20050;-66
2022/06/27 06:16:49;;;;;;;3.70;2.85;;;17.70;99.90;;;;;;5011361;28;20082;-66
2022/06/27 06:19:16;;;;;;;5.30;3.05;;;17.60;99.90;;;;;;5005256;28;20045;-66
2022/06/27 06:21:42;;;;;;;3.92;2.97;;;17.60;99.90;;;;;;5010747;28;20041;-67
2022/06/27 06:24:08;;;;;;;4.65;3.08;;;17.50;99.90;;;;;;5027156;28;20088;-66
2022/06/27 06:26:34;;;;;;;4.80;3.10;;;17.60;99.90;;;;;;5026280;28;20671;-64
2022/06/27 06:29:05;;;;;;;3.83;2.80;;;17.60;99.90;;;;;;5011810;28;20042;-64
2022/06/27 06:31:31;;;;;;;5.95;2.80;;;17.60;99.90;;;;;;5011001;28;20488;-66
2022/06/27 06:33:57;;;;;;;3.80;2.90;;;17.50;99.90;;;;;;5010827;28;20396;-66
2022/06/27 06:36:24;;;;;;;4.65;2.80;;;17.50;99.90;;;;;;5014032;28;20064;-65
2022/06/27 06:38:51;;;;;;;3.40;2.55;;;17.50;99.90;;;;;;5012983;28;20038;-67
2022/06/27 06:41:17;;;;;;;3.65;2.60;;;17.50;99.90;;;;;;5013325;28;20038;-64
2022/06/27 06:43:45;;;;;;;2.97;2.25;;;17.50;99.90;;;;;;5013581;28;20046;-65
2022/06/27 06:46:11;;;;;;;;;;;17.50;99.90;;;;;;5012417;28;20046;-66
2022/06/27 06:48:38;;;;;;;3.40;2.67;;;17.50;99.90;;;;;;5009512;28;19925;-69
2022/06/27 06:51:07;;;;;;;4.90;2.75;;;17.50;99.90;;;;;;5002109;28;20048;-65
2022/06/27 06:53:35;;;;;;;4.32;2.95;;;17.50;99.90;;;;;;5011928;28;20515;-66
2022/06/27 06:56:01;;;;;;;5.63;2.70;;;17.50;99.90;;;;;;5005696;28;20054;-65
2022/06/27 06:58:27;;;;;;;5.00;3.10;;;17.50;99.90;;;;;;5008327;28;20092;-66
2022/06/27 07:00:54;;;;;;;6.65;2.88;;;17.50;99.90;;;;;;5003000;28;20038;-66
2022/06/27 07:03:23;;;;;;;5.32;2.92;;;17.50;99.90;;;;;;5003436;28;20531;-66
2022/06/27 07:05:49;;;;;;;4.03;2.95;;;17.50;99.90;;;;;;5006237;28;20061;-66
2022/06/27 07:08:15;;;;;;;3.30;2.95;;;17.50;99.90;;;;;;5003596;28;20053;-66
2022/06/27 07:10:41;;;;;;;4.15;3.17;;;17.50;99.90;;;;;;5009613;28;20444;-66
2022/06/27 07:13:07;;;;;;;6.85;3.28;;;17.50;99.90;;;;;;5006912;28;20073;-66
2022/06/27 07:15:33;;;;;;;5.63;2.90;;;17.50;99.90;;;;;;5006251;28;20128;-66
2022/06/27 07:18:00;;;;;;;3.40;3.03;;;17.60;99.90;;;;;;5005128;28;20041;-66
2022/06/27 07:20:26;;;;;;;9.50;3.20;;;17.70;99.90;;;;;;4999392;28;20404;-66
2022/06/27 07:22:53;;;;;;;4.95;3.03;;;17.70;99.90;;;;;;5009219;28;20038;-67
2022/06/27 07:25:19;;;;;;;3.90;2.78;;;17.80;99.90;;;;;;5007680;28;20504;-66
2022/06/27 07:27:46;;;;;;;4.82;2.83;;;17.80;99.90;;;;;;5024233;28;20046;-66
2022/06/27 07:30:13;;;;;;;6.80;2.83;;;17.80;99.90;;;;;;5005182;28;20111;-66
2022/06/27 07:32:41;;;;;;;3.60;2.80;;;17.80;99.90;;;;;;5008186;28;20374;-65
2022/06/27 07:35:11;;;;;;;4.82;3.45;;;17.80;99.90;;;;;;5003113;28;20046;-65
2022/06/27 07:37:43;;;;;;;4.80;3.25;;;17.80;99.90;;;;;;4991614;28;20046;-67
2022/06/27 07:40:11;;;;;;;5.25;3.83;;;17.80;99.90;;;;;;5007440;28;20080;-66
2022/06/27 07:42:37;;;;;;;6.13;3.47;;;17.70;99.90;;;;;;5005144;28;20057;-66
2022/06/27 07:45:04;;;;;;;5.70;3.10;;;17.70;99.90;;;;;;5021999;28;20073;-66
2022/06/27 07:47:30;;;;;;;5.93;3.30;;;17.70;99.90;;;;;;5008474;28;20046;-66
2022/06/27 07:49:55;;;;;;;6.03;3.30;;;17.70;99.90;;;;;;5023869;28;20408;-66
2022/06/27 07:52:21;;;;;;;6.78;3.60;;;17.70;99.90;;;;;;5007474;28;20143;-65
2022/06/27 07:54:48;;;;;;;5.47;3.22;;;17.70;99.90;;;;;;5003636;28;20046;-65
2022/06/27 07:57:14;;;;;;;5.15;3.25;;;17.70;99.90;;;;;;5007529;28;20400;-66
2022/06/27 07:59:40;;;;;;;7.95;3.83;;;17.70;99.90;;;;;;5008390;28;20058;-66
2022/06/27 08:02:07;;;;;;;5.57;3.08;;;17.70;99.90;;;;;;5006732;28;20038;-66
2022/06/27 08:04:36;;;;;;;6.10;4.13;;;17.70;99.90;;;;;;5007166;28;20061;-66
2022/06/27 08:07:03;;;;;;;6.75;4.25;;;17.70;99.90;;;;;;5002033;28;20116;-65
2022/06/27 08:09:29;;;;;;;6.82;3.83;;;17.70;99.90;;;;;;5007184;28;20060;-66
2022/06/27 08:11:55;;;;;;;5.32;4.10;;;17.70;99.90;;;;;;5024643;28;20045;-66
2022/06/27 08:14:21;;;;;;;4.78;3.97;;;17.80;99.90;;;;;;5008297;28;20156;-66
2022/06/27 08:16:49;;;;;;;8.02;4.15;;;17.70;99.90;;;;;;5008864;28;20396;-66
2022/06/27 08:19:15;;;;;;;6.05;3.83;;;17.80;99.90;;;;;;5004917;28;20054;-65
2022/06/27 08:21:43;;;;;;;5.55;4.22;;;17.80;99.90;;;;;;5009271;28;20054;-66
2022/06/27 08:24:12;;;;;;;5.32;4.30;;;17.80;99.90;;;;;;5003905;28;20509;-66
2022/06/27 08:26:38;;;;;;;7.25;4.00;;;17.90;99.90;;;;;;5003646;28;20126;-67
2022/06/27 08:29:06;;;;;;;7.63;3.95;;;17.80;99.90;;;;;;5003787;28;20472;-65
2022/06/27 08:31:33;;;;;;;5.55;3.95;;;17.90;99.90;;;;;;5009623;28;20171;-66
2022/06/27 08:34:03;;;;;;;7.75;4.80;;;17.90;99.90;;;;;;5006018;28;20474;-65
2022/06/27 08:36:30;;;;;;;11.10;4.63;;;17.90;99.90;;;;;;5010697;28;20404;-65
2022/06/27 08:38:57;;;;;;;5.47;4.17;;;18.00;99.90;;;;;;5012055;28;20065;-66
2022/06/27 08:41:24;;;;;;;6.32;4.30;;;18.10;99.90;;;;;;5010136;28;20042;-66
2022/06/27 08:43:58;;;;;;;6.03;4.10;;;18.20;99.90;;;;;;5008664;28;20172;-67
2022/06/27 08:46:24;;;;;;;5.30;4.00;;;18.20;99.90;;;;;;5009424;28;20042;-67
2022/06/27 08:48:50;;;;;;;5.03;4.47;;;18.20;99.90;;;;;;5009587;28;20050;-68
2022/06/27 08:51:18;;;;;;;5.40;3.80;;;18.20;99.90;;;;;;5010330;28;20053;-67
2022/06/27 08:53:44;;;;;;;7.65;4.10;;;18.30;99.90;;;;;;5010308;28;20048;-66
2022/06/27 08:56:13;;;;;;;5.07;3.80;;;18.30;99.90;;;;;;5007157;28;20522;-66
2022/06/27 08:58:39;;;;;;;4.43;3.70;;;18.30;99.90;;;;;;5012209;28;20061;-65
2022/06/27 09:01:06;;;;;;;5.53;3.85;;;18.20;99.90;;;;;;5011112;28;20052;-66
2022/06/27 09:03:33;;;;;;;5.93;3.97;;;18.20;99.90;;;;;;5025637;28;20038;-66
2022/06/27 09:06:04;;;;;;;5.63;3.78;;;18.20;99.90;;;;;;5009713;28;20062;-65
2022/06/27 09:09:05;;;;;;;6.20;3.80;;;18.30;99.90;;;;;;5011075;28;20041;-66
2022/06/27 09:11:33;;;;;;;3.88;3.40;;;18.40;99.90;;;;;;5010970;28;20046;-66
2022/06/27 09:14:00;;;;;;;6.78;3.80;;;18.40;99.90;;;;;;5010980;28;20045;-67
2022/06/27 09:16:27;;;;;;;5.63;3.58;;;18.40;99.90;;;;;;5010901;28;20076;-66
2022/06/27 09:18:53;;;;;;;7.05;3.60;;;18.50;99.90;;;;;;5009959;28;20053;-66
2022/06/27 09:21:19;;;;;;;3.53;3.20;;;18.70;99.90;;;;;;5009956;28;20558;-67
2022/06/27 09:23:59;;;;;;;5.00;3.55;;;18.60;99.90;;;;;;5010024;28;20090;-66
2022/06/27 09:26:30;;;;;;;5.38;4.05;;;18.70;99.90;;;;;;5009778;28;20128;-66
2022/06/27 09:29:09;;;;;;;5.43;3.80;;;18.80;99.90;;;;;;5001575;28;20535;-66
2022/06/27 09:31:42;;;;;;;4.70;3.40;;;18.90;99.90;;;;;;5005994;28;20570;-66
2022/06/27 09:34:14;;;;;;;4.35;3.33;;;19.00;99.90;;;;;;5004669;28;20524;-66
2022/06/27 09:37:08;;;;;;;6.97;3.50;;;19.00;99.90;;;;;;5005878;28;20054;-67
2022/06/27 09:39:39;;;;;;;7.38;3.35;;;19.00;99.90;;;;;;5019441;28;20066;-66
2022/06/27 09:42:08;;;;;;;5.15;3.42;;;19.00;99.90;;;;;;5021136;28;20193;-66
2022/06/27 09:44:38;;;;;;;4.38;3.53;;;19.00;99.90;;;;;;5006051;28;20045;-66
2022/06/27 09:47:11;;;;;;;6.15;4.07;;;18.90;99.90;;;;;;5022250;28;20074;-66
2022/06/27 09:49:40;;;;;;;7.88;4.32;;;18.90;99.90;;;;;;5006635;28;20132;-66
2022/06/27 09:52:10;;;;;;;6.88;4.35;;;18.80;99.90;;;;;;5007739;28;20053;-66
2022/06/27 09:54:38;;;;;;;6.13;4.50;;;18.80;99.90;;;;;;5005254;28;20050;-66
2022/06/27 09:57:06;;;;;;;7.07;4.47;;;18.80;99.90;;;;;;5010554;28;21076;-66
2022/06/27 09:59:32;;;;;;;9.13;5.28;;;18.80;99.90;;;;;;5005935;28;20393;-67
2022/06/27 10:01:58;;;;;;;6.10;4.43;;;18.80;99.90;;;;;;5005141;28;20043;-66
2022/06/27 10:04:25;;;;;;;7.45;4.97;;;18.80;99.90;;;;;;5006820;28;20061;-66
2022/06/27 10:06:54;;;;;;;8.93;4.38;;;18.90;99.90;;;;;;5004197;28;20196;-67
2022/06/27 10:09:24;;;;;;;8.02;4.53;;;18.90;99.90;;;;;;5005820;28;20133;-66
2022/06/27 10:12:27;;;;;;;10.80;5.07;;;18.90;99.90;;;;;;5006117;28;20034;-67
2022/06/27 10:15:10;;;;;;;11.40;5.38;;;18.90;99.90;;;;;;5000388;28;20547;-67
2022/06/27 10:17:38;;;;;;;8.43;5.07;;;18.90;99.90;;;;;;5001668;28;20466;-66
2022/06/27 10:20:10;;;;;;;7.63;4.63;;;18.90;99.90;;;;;;5005135;28;20072;-66
2022/06/27 10:22:36;;;;;;;8.43;5.00;;;18.90;99.90;;;;;;5005614;28;20381;-66
2022/06/27 10:25:26;;;;;;;9.82;4.60;;;19.00;99.90;;;;;;5004178;28;20041;-66
2022/06/27 10:28:10;;;;;;;8.05;4.80;;;19.00;99.90;;;;;;5005578;28;20095;-67
2022/06/27 10:30:44;;;;;;;7.78;4.50;;;19.10;99.90;;;;;;5004673;28;20069;-67
2022/06/27 10:33:29;;;;;;;9.38;5.00;;;19.10;99.90;;;;;;5004656;28;20041;-66
2022/06/27 10:35:55;;;;;;;7.13;4.65;;;19.20;99.90;;;;;;4998565;28;20535;-67
2022/06/27 10:38:31;;;;;;;9.02;4.57;;;19.20;99.90;;;;;;5015056;28;20133;-66
2022/06/27 10:40:58;;;;;;;6.05;4.35;;;19.20;99.90;;;;;;5003147;28;20084;-66
2022/06/27 10:43:36;;;;;;;;;;;19.20;99.90;;;;;;5001767;28;20131;-66
2022/06/27 10:46:22;;;;;;;5.18;3.80;;;19.30;99.90;;;;;;5003873;28;19931;-66
2022/06/27 10:48:56;;;;;;;7.05;4.22;;;19.40;99.90;;;;;;4986128;28;20061;-66
2022/06/27 10:51:27;;;;;;;5.18;3.67;;;19.40;99.90;;;;;;5022360;28;20045;-67
2022/06/27 10:53:58;;;;;;;4.70;3.45;;;19.50;99.90;;;;;;5004330;28;20184;-67
2022/06/27 10:56:36;;;;;;;6.32;3.42;;;19.50;99.90;;;;;;5003801;28;20046;-66
2022/06/27 10:59:04;;;;;;;6.45;3.97;;;19.60;99.90;;;;;;5004600;28;20151;-66
2022/06/27 11:01:31;;;;;;;4.78;3.80;;;19.70;99.90;;;;;;5006495;28;20058;-66
2022/06/27 11:03:58;;;;;;;6.17;4.20;;;19.70;99.90;;;;;;5004327;28;20129;-66
2022/06/27 11:06:24;;;;;;;6.43;4.40;;;19.80;99.90;;;;;;5002860;28;20061;-66
2022/06/27 11:08:52;;;;;;;5.72;3.80;;;19.90;99.90;;;;;;5004653;28;20408;-67
2022/06/27 11:11:19;;;;;;;;;;;19.90;99.90;;;;;;5004430;28;20074;-66
2022/06/27 11:13:55;;;;;;;4.43;3.78;;;19.90;99.90;;;;;;5004843;28;19932;-68
2022/06/27 11:16:27;;;;;;;8.38;4.05;;;19.90;99.90;;;;;;5019308;28;20046;-67
2022/06/27 11:18:58;;;;;;;6.00;3.88;;;20.00;99.90;;;;;;5004554;28;20129;-67
2022/06/27 11:21:25;;;;;;;9.82;4.15;;;20.00;99.90;;;;;;5005613;28;20068;-66
2022/06/27 11:23:57;;;;;;;6.75;3.95;;;20.10;99.90;;;;;;4998770;28;20081;-66
2022/06/27 11:26:38;;;;;;;4.72;3.47;;;20.10;99.90;;;;;;4998912;28;20515;-67
2022/06/27 11:32:06;;;;;;;6.40;3.78;;;20.00;99.90;;;;;;5003052;28;20053;-66
2022/06/27 11:34:34;;;;;;;6.55;3.88;;;20.10;99.90;;;;;;5002532;28;20124;-67
2022/06/27 11:37:07;;;;;;;6.15;3.70;;;20.00;99.90;;;;;;5009808;28;20155;-67
2022/06/27 11:39:34;;;;;;;6.50;3.85;;;20.00;99.90;;;;;;5000076;28;20061;-67
2022/06/27 11:42:02;;;;;;;5.78;3.78;;;20.00;99.90;;;;;;4999307;28;20046;-67
2022/06/27 11:44:29;;;;;;;4.93;3.75;;;19.90;99.90;;;;;;5002175;28;20108;-66
2022/06/27 11:47:06;;;;;;;4.70;3.50;;;19.80;99.90;;;;;;5003011;28;20046;-66
2022/06/27 11:49:37;;;;;;;5.07;3.50;;;19.80;99.90;;;;;;5001514;28;20407;-66
2022/06/27 11:52:06;;;;;;;6.65;3.50;;;19.80;99.90;;;;;;5018983;28;20046;-66
2022/06/27 11:54:44;;;;;;;3.97;3.42;;;19.80;99.90;;;;;;5018853;28;20104;-67
2022/06/27 11:57:22;;;;;;;5.30;3.50;;;19.70;99.90;;;;;;5002413;28;20104;-66
2022/06/27 11:59:50;;;;;;;5.30;3.10;;;19.70;99.90;;;;;;5002586;28;20172;-66
2022/06/27 12:02:29;;;;;;;4.20;2.85;;;19.70;99.90;;;;;;5004141;28;20081;-66
2022/06/27 12:05:16;;;;;;;5.00;2.90;;;19.70;99.90;;;;;;5002615;28;20054;-66
2022/06/27 12:08:01;;;;;;;5.68;3.22;;;19.70;99.90;;;;;;5004850;28;20523;-66
2022/06/27 12:11:16;;;;;;;4.40;3.35;;;19.70;99.90;;;;;;5004578;28;20516;-66
2022/06/27 12:13:34;;;;;;;4.18;3.30;;;19.70;99.90;;;;;;5010003;28;20046;-66
2022/06/27 12:16:01;;;;;;;4.55;3.15;;;19.70;99.90;;;;;;5008307;28;20188;-65
2022/06/27 12:18:38;;;;;;;9.13;3.47;;;19.70;99.90;;;;;;5006294;28;20053;-66
2022/06/27 12:21:04;;;;;;;7.95;3.53;;;19.60;99.90;;;;;;5009637;28;20046;-66
2022/06/27 12:23:30;;;;;;;6.20;3.90;;;19.50;99.90;;;;;;5011438;28;20057;-66
2022/06/27 12:25:56;;;;;;;4.53;3.42;;;19.50;99.90;;;;;;5010370;28;20038;-66
2022/06/27 12:28:23;;;;;;;4.93;3.53;;;19.50;99.90;;;;;;5012164;28;20420;-65
2022/06/27 12:30:49;;;;;;;5.18;3.53;;;19.60;99.90;;;;;;5011612;28;20419;-65
2022/06/27 12:33:15;;;;;;;5.88;3.67;;;19.60;99.90;;;;;;5009878;28;20519;-65
2022/06/27 12:35:41;;;;;;;6.07;3.50;;;19.60;99.90;;;;;;5009842;28;20076;-65
2022/06/27 12:38:07;;;;;;;4.85;3.33;;;19.70;99.90;;;;;;5011396;28;20052;-66
2022/06/27 12:40:35;;;;;;;5.50;3.50;;;19.70;99.90;;;;;;5010618;28;20053;-65
2022/06/27 12:43:01;;;;;;;7.60;3.88;;;19.70;99.90;;;;;;5011487;28;20500;-65
2022/06/27 12:45:26;;;;;;;8.63;3.55;;;19.70;99.90;;;;;;5010608;28;20076;-65
2022/06/27 12:47:52;;;;;;;7.70;3.50;;;19.70;99.90;;;;;;5012539;28;20050;-66
2022/06/27 12:50:18;;;;;;;5.95;3.70;;;19.80;99.90;;;;;;5023005;28;20042;-66